Time;durP1;ratioP1;P1;durP2;ratioP2;P2;SDS_P1;SDS_P2;PMS_P1;PMS_P2;Temp;Humidity;BMP_temperature;BMP_pressure;BME280_temperature;BME280_humidity;BME280_pressure;Samples;Min_cycle;Max_cycle;Signal;HPM_P1;HPM_P2
2023/02/09 05:31:26;;;;;;;;;90.25;65.75;;;;;;;;6343316;22;46234;-60
2023/02/09 05:33:51;;;;;;;;;86.25;60.50;;;;;;;;6403113;22;45221;-61
2023/02/09 05:36:16;;;;;;;;;90.00;65.75;;;;;;;;6403328;22;45407;-61
2023/02/09 05:38:42;;;;;;;;;87.25;66.75;;;;;;;;6403780;22;45608;-60
2023/02/09 05:41:08;;;;;;;;;82.50;65.75;;;;;;;;6402955;22;45283;-60
2023/02/09 05:43:35;;;;;;;;;87.00;69.00;;;;;;;;6403775;22;46120;-60
2023/02/09 05:46:00;;;;;;;;;84.75;68.50;;;;;;;;6403667;22;45490;-61
2023/02/09 05:48:25;;;;;;;;;86.25;65.25;;;;;;;;6403302;22;45310;-61
2023/02/09 05:50:50;;;;;;;;;83.25;64.25;;;;;;;;6403997;22;45265;-61
2023/02/09 05:53:16;;;;;;;;;87.75;67.50;;;;;;;;6403187;22;45686;-60
2023/02/09 05:55:42;;;;;;;;;83.25;64.50;;;;;;;;6402882;22;45435;-60
2023/02/09 05:58:07;;;;;;;;;89.00;65.75;;;;;;;;6402668;22;45278;-60
2023/02/09 06:00:32;;;;;;;;;82.25;63.50;;;;;;;;6403436;22;45412;-61
2023/02/09 06:02:58;;;;;;;;;83.25;64.00;;;;;;;;6402926;22;46107;-61
2023/02/09 06:05:23;;;;;;;;;88.75;65.25;;;;;;;;6403413;22;45216;-61
2023/02/09 06:07:48;;;;;;;;;85.50;66.25;;;;;;;;6404153;22;45692;-61
2023/02/09 06:10:14;;;;;;;;;77.75;61.50;;;;;;;;6404161;22;45307;-61
2023/02/09 06:12:39;;;;;;;;;86.50;64.75;;;;;;;;6403446;22;46056;-61
2023/02/09 06:15:05;;;;;;;;;90.50;65.00;;;;;;;;6403302;22;45352;-62
2023/02/09 06:17:30;;;;;;;;;83.75;65.25;;;;;;;;6403295;22;45419;-60
2023/02/09 06:19:55;;;;;;;;;88.25;67.75;;;;;;;;6403494;22;45357;-60
2023/02/09 06:22:20;;;;;;;;;88.75;67.25;;;;;;;;6403128;22;46224;-60
2023/02/09 06:24:45;;;;;;;;;89.25;66.25;;;;;;;;6403444;22;45549;-60
2023/02/09 06:27:11;;;;;;;;;85.50;63.75;;;;;;;;6403402;22;45596;-60
2023/02/09 06:29:37;;;;;;;;;85.00;65.00;;;;;;;;6402800;22;45301;-60
2023/02/09 06:32:02;;;;;;;;;85.25;66.00;;;;;;;;6402643;22;46154;-61
2023/02/09 06:34:27;;;;;;;;;89.00;67.50;;;;;;;;6403256;22;45174;-60
2023/02/09 06:36:52;;;;;;;;;88.00;67.75;;;;;;;;6402323;22;45259;-62
2023/02/09 06:39:17;;;;;;;;;80.75;65.00;;;;;;;;6402560;22;45258;-61
2023/02/09 06:41:43;;;;;;;;;87.50;67.75;;;;;;;;6399610;22;45254;-61
2023/02/09 06:44:08;;;;;;;;;83.50;65.25;;;;;;;;6401263;22;45487;-61
2023/02/09 06:46:33;;;;;;;;;91.50;67.00;;;;;;;;6402891;22;45379;-61
2023/02/09 06:48:58;;;;;;;;;88.00;66.75;;;;;;;;6400849;22;45586;-61
2023/02/09 06:51:24;;;;;;;;;90.00;67.50;;;;;;;;6399622;22;46177;-61
2023/02/09 06:53:49;;;;;;;;;91.25;65.00;;;;;;;;6402710;22;45570;-61
2023/02/09 06:56:14;;;;;;;;;91.50;68.25;;;;;;;;6399673;22;45252;-61
2023/02/09 06:58:40;;;;;;;;;92.75;67.50;;;;;;;;6402898;22;45422;-62
2023/02/09 07:01:07;;;;;;;;;90.00;69.75;;;;;;;;6402706;22;46083;-61
2023/02/09 07:03:33;;;;;;;;;95.50;72.50;;;;;;;;6402775;22;45249;-61
2023/02/09 07:06:06;;;;;;;;;92.75;69.00;;;;;;;;6403031;22;45619;-60
2023/02/09 07:08:31;;;;;;;;;97.50;68.25;;;;;;;;6402457;22;45440;-61
2023/02/09 07:10:59;;;;;;;;;94.75;70.50;;;;;;;;6401936;22;46180;-60
2023/02/09 07:13:24;;;;;;;;;95.00;72.75;;;;;;;;6401899;22;45217;-60
2023/02/09 07:15:54;;;;;;;;;94.50;72.50;;;;;;;;6402739;22;45572;-61
2023/02/09 07:18:19;;;;;;;;;95.75;71.25;;;;;;;;6402234;22;45476;-60
2023/02/09 07:20:44;;;;;;;;;95.75;70.25;;;;;;;;6402897;22;45259;-61
2023/02/09 07:23:09;;;;;;;;;95.75;73.50;;;;;;;;6400482;22;45438;-61
2023/02/09 07:25:35;;;;;;;;;103.75;76.75;;;;;;;;6400520;22;45314;-60
2023/02/09 07:28:00;;;;;;;;;97.25;73.25;;;;;;;;6402231;22;45559;-60
2023/02/09 07:30:25;;;;;;;;;100.50;75.25;;;;;;;;6398565;22;46192;-60
2023/02/09 07:32:50;;;;;;;;;98.25;79.25;;;;;;;;6401455;22;45416;-60
2023/02/09 07:35:15;;;;;;;;;97.75;72.50;;;;;;;;6402890;22;45629;-61
2023/02/09 07:37:40;;;;;;;;;92.25;73.75;;;;;;;;6403673;22;45268;-60
2023/02/09 07:40:06;;;;;;;;;97.75;74.75;;;;;;;;6402023;22;46098;-60
2023/02/09 07:42:31;;;;;;;;;90.00;68.25;;;;;;;;6398746;22;45377;-60
2023/02/09 07:44:56;;;;;;;;;92.25;70.75;;;;;;;;6399698;22;45229;-60
2023/02/09 07:47:21;;;;;;;;;93.50;66.75;;;;;;;;6401387;22;45305;-60
2023/02/09 07:49:47;;;;;;;;;92.25;67.50;;;;;;;;6402200;22;46164;-61
2023/02/09 07:52:12;;;;;;;;;86.25;65.25;;;;;;;;6401249;22;45240;-58
2023/02/09 07:54:37;;;;;;;;;91.50;67.75;;;;;;;;6373482;22;45229;-60
2023/02/09 07:57:02;;;;;;;;;89.75;66.00;;;;;;;;6400067;22;45170;-61
2023/02/09 07:59:28;;;;;;;;;88.50;66.50;;;;;;;;6400690;22;45273;-60
2023/02/09 08:01:53;;;;;;;;;86.25;65.75;;;;;;;;6400595;22;45285;-60
2023/02/09 08:04:18;;;;;;;;;96.25;65.00;;;;;;;;6402035;22;46035;-59
2023/02/09 08:06:45;;;;;;;;;91.50;65.75;;;;;;;;6401248;22;45310;-59
2023/02/09 08:09:11;;;;;;;;;93.75;66.75;;;;;;;;6401805;22;45438;-60
2023/02/09 08:11:40;;;;;;;;;96.50;67.50;;;;;;;;6402705;22;45359;-59
2023/02/09 08:14:09;;;;;;;;;97.00;69.75;;;;;;;;6402191;22;45336;-59
2023/02/09 08:16:35;;;;;;;;;90.50;70.00;;;;;;;;6402304;22;45292;-59
2023/02/09 08:19:07;;;;;;;;;93.75;73.25;;;;;;;;6402630;22;45305;-60
2023/02/09 08:21:34;;;;;;;;;83.75;64.25;;;;;;;;6402284;22;45364;-59
2023/02/09 08:23:59;;;;;;;;;88.25;65.50;;;;;;;;6402124;22;45327;-59
2023/02/09 08:26:25;;;;;;;;;85.25;65.50;;;;;;;;6373431;22;45310;-60
2023/02/09 08:28:51;;;;;;;;;92.50;71.00;;;;;;;;6402661;22;46160;-60
2023/02/09 08:31:18;;;;;;;;;94.00;67.75;;;;;;;;6401708;22;45526;-61
2023/02/09 08:33:43;;;;;;;;;91.00;66.50;;;;;;;;6402232;22;45384;-59
2023/02/09 08:36:09;;;;;;;;;91.75;71.00;;;;;;;;6402281;22;45359;-59
2023/02/09 08:38:35;;;;;;;;;96.25;65.50;;;;;;;;6402268;22;45979;-58
2023/02/09 08:41:03;;;;;;;;;84.00;64.50;;;;;;;;6401363;22;45236;-58
2023/02/09 08:43:29;;;;;;;;;91.50;68.75;;;;;;;;6401933;22;45684;-59
2023/02/09 08:45:54;;;;;;;;;85.50;64.75;;;;;;;;6403015;22;45344;-59
2023/02/09 08:48:19;;;;;;;;;96.00;76.00;;;;;;;;6401562;22;45949;-59
2023/02/09 08:50:44;;;;;;;;;85.00;66.00;;;;;;;;6402516;22;45249;-60
2023/02/09 08:53:10;;;;;;;;;98.50;75.75;;;;;;;;6403698;22;45167;-58
2023/02/09 08:55:36;;;;;;;;;93.25;71.25;;;;;;;;6404380;22;45267;-59
2023/02/09 08:58:01;;;;;;;;;101.50;84.25;;;;;;;;6404309;22;45227;-58
2023/02/09 09:00:26;;;;;;;;;99.50;79.00;;;;;;;;6374996;22;45478;-60
2023/02/09 09:02:52;;;;;;;;;97.00;79.25;;;;;;;;6404062;22;45203;-60
2023/02/09 09:05:17;;;;;;;;;98.50;82.50;;;;;;;;6403423;22;45729;-60
2023/02/09 09:07:42;;;;;;;;;97.75;86.25;;;;;;;;6404219;22;46305;-61
2023/02/09 09:10:08;;;;;;;;;98.75;82.25;;;;;;;;6403108;22;45300;-60
2023/02/09 09:12:33;;;;;;;;;110.50;91.75;;;;;;;;6404576;22;45462;-60
2023/02/09 09:14:58;;;;;;;;;103.75;92.25;;;;;;;;6404324;22;45343;-60
2023/02/09 09:17:24;;;;;;;;;102.75;95.25;;;;;;;;6403621;22;45315;-60
2023/02/09 09:19:51;;;;;;;;;107.50;87.25;;;;;;;;6403503;22;45341;-58
2023/02/09 09:22:16;;;;;;;;;106.75;92.75;;;;;;;;6403355;22;45305;-58
2023/02/09 09:24:41;;;;;;;;;108.25;91.25;;;;;;;;6403885;22;45313;-59
2023/02/09 09:27:07;;;;;;;;;109.75;92.75;;;;;;;;6374669;22;46134;-58
2023/02/09 09:29:33;;;;;;;;;199.67;165.67;;;;;;;;6403776;22;45348;-59
2023/02/09 09:31:59;;;;;;;;;158.67;137.00;;;;;;;;6403163;22;45353;-60
2023/02/09 09:34:24;;;;;;;;;113.25;94.50;;;;;;;;6402887;22;45239;-61
2023/02/09 09:36:49;;;;;;;;;99.50;84.75;;;;;;;;6403832;22;47045;-60
2023/02/09 09:39:15;;;;;;;;;99.50;78.25;;;;;;;;6403737;22;45458;-60
2023/02/09 09:41:40;;;;;;;;;93.50;78.50;;;;;;;;6405635;22;45339;-60
2023/02/09 09:44:17;;;;;;;;;104.00;85.75;;;;;;;;6404347;22;45215;-60
2023/02/09 09:46:45;;;;;;;;;90.50;74.75;;;;;;;;6403890;22;46232;-59
2023/02/09 09:49:18;;;;;;;;;94.00;80.00;;;;;;;;6403160;22;45336;-60
2023/02/09 09:51:46;;;;;;;;;90.75;77.75;;;;;;;;6403933;22;45661;-60
2023/02/09 09:54:14;;;;;;;;;95.25;76.75;;;;;;;;6403446;22;45339;-60
2023/02/09 09:56:40;;;;;;;;;94.25;84.25;;;;;;;;6403535;22;46468;-60
2023/02/09 09:59:10;;;;;;;;;103.25;81.50;;;;;;;;6403067;22;45551;-60
2023/02/09 10:01:35;;;;;;;;;98.00;77.75;;;;;;;;6404195;22;45379;-60
2023/02/09 10:04:08;;;;;;;;;91.00;69.75;;;;;;;;6402136;22;45437;-60
2023/02/09 10:06:33;;;;;;;;;81.75;62.25;;;;;;;;6403982;22;45362;-60
2023/02/09 10:09:03;;;;;;;;;87.00;67.50;;;;;;;;6403773;22;45335;-60
2023/02/09 10:11:42;;;;;;;;;71.50;56.50;;;;;;;;6404006;22;45202;-60
2023/02/09 10:14:08;;;;;;;;;74.75;59.25;;;;;;;;6402891;22;45400;-60
2023/02/09 10:16:36;;;;;;;;;80.25;58.00;;;;;;;;6403521;22;45863;-60
2023/02/09 10:19:25;;;;;;;;;79.25;62.50;;;;;;;;6403501;22;45427;-60
2023/02/09 10:21:51;;;;;;;;;79.25;64.25;;;;;;;;6362234;22;45202;-61
2023/02/09 10:24:23;;;;;;;;;84.50;68.25;;;;;;;;6401882;22;45349;-60
2023/02/09 10:27:07;;;;;;;;;78.25;64.25;;;;;;;;6403146;22;46069;-61
2023/02/09 10:29:34;;;;;;;;;71.50;55.25;;;;;;;;6375208;22;45578;-61
2023/02/09 10:32:13;;;;;;;;;60.00;48.75;;;;;;;;6402557;22;45357;-61
2023/02/09 10:34:39;;;;;;;;;57.75;46.25;;;;;;;;6403472;22;45340;-61
2023/02/09 10:37:20;;;;;;;;;59.00;46.25;;;;;;;;6402920;22;45276;-61
2023/02/09 10:39:47;;;;;;;;;63.50;49.00;;;;;;;;6403485;22;45243;-60
2023/02/09 10:42:18;;;;;;;;;59.00;44.75;;;;;;;;6403276;22;45303;-61
2023/02/09 10:44:47;;;;;;;;;52.25;43.50;;;;;;;;6373994;22;45596;-61
2023/02/09 10:47:18;;;;;;;;;55.75;43.50;;;;;;;;6402614;22;46285;-61
2023/02/09 10:49:49;;;;;;;;;51.00;42.50;;;;;;;;6403390;22;45567;-61
2023/02/09 10:52:16;;;;;;;;;52.75;43.75;;;;;;;;6402981;22;45352;-60
2023/02/09 10:54:43;;;;;;;;;59.25;45.00;;;;;;;;6403388;22;45491;-59
2023/02/09 10:57:22;;;;;;;;;52.00;42.75;;;;;;;;6402649;22;46223;-59
2023/02/09 10:59:52;;;;;;;;;57.50;46.00;;;;;;;;6403077;22;45810;-60
2023/02/09 11:02:29;;;;;;;;;57.25;45.00;;;;;;;;6403034;22;45263;-61
2023/02/09 11:04:54;;;;;;;;;58.50;45.00;;;;;;;;6403776;22;45485;-61
2023/02/09 11:07:23;;;;;;;;;55.50;43.00;;;;;;;;6402982;22;46523;-59
2023/02/09 11:09:50;;;;;;;;;53.25;44.00;;;;;;;;6403264;22;45228;-60
2023/02/09 11:12:15;;;;;;;;;54.75;44.00;;;;;;;;6403001;22;45350;-59
2023/02/09 11:14:41;;;;;;;;;55.00;45.00;;;;;;;;6403478;22;45230;-59
2023/02/09 11:17:16;;;;;;;;;58.50;43.00;;;;;;;;6402732;22;46170;-60
2023/02/09 11:20:00;;;;;;;;;56.00;45.50;;;;;;;;6402742;22;45279;-60
2023/02/09 11:22:28;;;;;;;;;59.75;46.50;;;;;;;;6402934;22;45293;-60
2023/02/09 11:24:53;;;;;;;;;62.00;50.50;;;;;;;;6403190;22;45308;-60
2023/02/09 11:27:35;;;;;;;;;59.50;48.00;;;;;;;;6402820;22;45398;-60
2023/02/09 11:30:00;;;;;;;;;66.75;53.25;;;;;;;;6403053;22;45485;-60
2023/02/09 11:32:32;;;;;;;;;69.75;53.75;;;;;;;;6401990;22;45324;-60
2023/02/09 11:35:00;;;;;;;;;67.00;52.50;;;;;;;;6403387;22;45358;-60
2023/02/09 11:37:25;;;;;;;;;64.50;50.50;;;;;;;;6374282;22;46063;-60
2023/02/09 11:40:00;;;;;;;;;58.25;45.75;;;;;;;;6402704;22;45340;-60
2023/02/09 11:42:45;;;;;;;;;56.50;43.50;;;;;;;;6403095;22;45378;-60
2023/02/09 11:45:10;;;;;;;;;63.00;47.75;;;;;;;;6401113;22;45308;-61
2023/02/09 11:47:52;;;;;;;;;58.25;46.75;;;;;;;;6403031;22;45400;-60
2023/02/09 11:50:37;;;;;;;;;60.67;47.00;;;;;;;;6402290;22;45379;-59
2023/02/09 11:53:12;;;;;;;;;61.50;46.25;;;;;;;;6403068;22;45363;-60
2023/02/09 11:55:46;;;;;;;;;56.25;45.00;;;;;;;;6402970;22;45385;-59
2023/02/09 11:58:17;;;;;;;;;52.67;42.67;;;;;;;;6402021;22;46018;-60
2023/02/09 12:00:47;;;;;;;;;55.33;43.00;;;;;;;;6403121;22;45396;-60
2023/02/09 12:03:13;;;;;;;;;57.33;44.33;;;;;;;;6402454;22;45273;-59
2023/02/09 12:05:39;;;;;;;;;54.33;42.67;;;;;;;;6403370;22;45293;-59
2023/02/09 12:08:04;;;;;;;;;53.33;43.33;;;;;;;;6402069;22;45399;-60
2023/02/09 12:10:32;;;;;;;;;52.00;41.67;;;;;;;;6402853;22;45334;-60
2023/02/09 12:13:06;;;;;;;;;48.67;42.00;;;;;;;;6403147;22;45349;-59
2023/02/09 12:15:43;;;;;;;;;54.67;43.33;;;;;;;;6402763;22;45298;-59
2023/02/09 12:18:13;;;;;;;;;53.67;44.00;;;;;;;;6402215;22;46180;-60
2023/02/09 12:20:52;;;;;;;;;55.33;43.67;;;;;;;;6402547;22;45336;-60
2023/02/09 12:23:17;;;;;;;;;46.67;40.33;;;;;;;;6402012;22;45439;-60
2023/02/09 12:25:51;;;;;;;;;53.33;42.33;;;;;;;;6402711;22;45283;-60
2023/02/09 12:28:22;;;;;;;;;50.33;40.33;;;;;;;;6403254;22;45283;-60
2023/02/09 12:30:48;;;;;;;;;53.33;40.67;;;;;;;;6403877;22;45194;-60
2023/02/09 12:33:22;;;;;;;;;49.67;40.00;;;;;;;;6404736;22;45249;-60
2023/02/09 12:36:00;;;;;;;;;49.00;40.33;;;;;;;;6404495;22;45306;-59
2023/02/09 12:38:39;;;;;;;;;50.33;40.67;;;;;;;;6403386;22;46827;-59
2023/02/09 12:41:05;;;;;;;;;49.67;40.33;;;;;;;;6403231;22;45361;-59
2023/02/09 12:43:31;;;;;;;;;46.33;37.00;;;;;;;;6404273;22;45364;-59
2023/02/09 12:46:12;;;;;;;;;49.67;40.33;;;;;;;;6375141;22;45337;-59
2023/02/09 12:48:46;;;;;;;;;47.67;39.33;;;;;;;;6403240;22;46298;-60
2023/02/09 12:51:30;;;;;;;;;53.67;40.00;;;;;;;;6403364;22;45368;-59
2023/02/09 12:53:55;;;;;;;;;39.00;34.67;;;;;;;;6404092;22;45430;-59
2023/02/09 12:56:20;;;;;;;;;57.00;46.00;;;;;;;;6374956;22;45395;-60
2023/02/09 12:58:48;;;;;;;;;52.67;43.67;;;;;;;;6404147;22;46065;-59
2023/02/09 13:01:14;;;;;;;;;55.00;43.67;;;;;;;;6403879;22;45174;-59
2023/02/09 13:03:46;;;;;;;;;49.00;42.00;;;;;;;;6403683;22;45578;-60
2023/02/09 13:06:24;;;;;;;;;45.33;39.33;;;;;;;;6403694;22;45695;-60
2023/02/09 13:08:52;;;;;;;;;54.00;42.67;;;;;;;;6403516;22;45264;-61
2023/02/09 13:11:20;;;;;;;;;48.67;40.67;;;;;;;;6403344;22;45246;-60
2023/02/09 13:13:57;;;;;;;;;55.33;41.33;;;;;;;;6403766;22;45423;-60
2023/02/09 13:16:22;;;;;;;;;58.00;43.33;;;;;;;;6403365;22;45292;-60
2023/02/09 13:18:47;;;;;;;;;50.00;41.67;;;;;;;;6403381;22;46124;-60
2023/02/09 13:21:27;;;;;;;;;60.67;46.33;;;;;;;;6403573;22;45307;-59
2023/02/09 13:24:05;;;;;;;;;48.00;38.67;;;;;;;;6404042;22;45416;-59
2023/02/09 13:26:31;;;;;;;;;55.00;45.33;;;;;;;;6404365;22;45279;-59
2023/02/09 13:29:08;;;;;;;;;47.00;39.33;;;;;;;;6403898;22;45368;-60
2023/02/09 13:31:33;;;;;;;;;50.67;40.67;;;;;;;;6403550;22;45722;-60
2023/02/09 13:34:01;;;;;;;;;51.00;42.00;;;;;;;;6403374;22;45101;-59
2023/02/09 13:36:30;;;;;;;;;48.33;39.00;;;;;;;;6403484;22;45190;-59
2023/02/09 13:38:55;;;;;;;;;51.67;41.00;;;;;;;;6402948;22;45966;-59
2023/02/09 13:41:23;;;;;;;;;49.33;40.00;;;;;;;;6403580;22;45611;-59
2023/02/09 13:43:48;;;;;;;;;55.33;43.33;;;;;;;;6403373;22;45324;-60
2023/02/09 13:46:24;;;;;;;;;49.67;39.67;;;;;;;;6373674;22;45348;-60
2023/02/09 13:48:49;;;;;;;;;51.67;42.00;;;;;;;;6402762;22;46807;-60
2023/02/09 13:51:16;;;;;;;;;54.50;41.00;;;;;;;;6403160;22;45229;-60
2023/02/09 13:53:53;;;;;;;;;48.00;40.67;;;;;;;;6403560;22;45314;-60
2023/02/09 13:56:19;;;;;;;;;49.33;39.00;;;;;;;;6403021;22;45284;-60
2023/02/09 13:58:45;;;;;;;;;53.50;42.25;;;;;;;;6403822;22;45230;-60
2023/02/09 14:01:13;;;;;;;;;47.33;38.67;;;;;;;;6403165;22;45696;-59
2023/02/09 14:03:43;;;;;;;;;49.00;39.00;;;;;;;;6403765;22;45287;-59
2023/02/09 14:06:19;;;;;;;;;42.67;34.33;;;;;;;;6374301;22;45626;-59
2023/02/09 14:08:45;;;;;;;;;46.67;37.33;;;;;;;;6402926;22;47049;-59
2023/02/09 14:11:28;;;;;;;;;44.33;36.67;;;;;;;;6402627;22;45247;-59
2023/02/09 14:14:06;;;;;;;;;47.67;38.00;;;;;;;;6403492;22;45340;-59
2023/02/09 14:16:32;;;;;;;;;47.75;38.75;;;;;;;;6403078;22;45523;-59
2023/02/09 14:18:58;;;;;;;;;49.75;39.00;;;;;;;;6403155;22;46001;-60
2023/02/09 14:21:42;;;;;;;;;48.50;38.50;;;;;;;;6403173;22;45315;-59
2023/02/09 14:24:11;;;;;;;;;34.67;29.67;;;;;;;;6402922;22;45668;-59
2023/02/09 14:26:53;;;;;;;;;50.75;40.25;;;;;;;;6403724;22;45460;-59
2023/02/09 14:29:24;;;;;;;;;46.33;38.33;;;;;;;;6374506;22;47379;-59
2023/02/09 14:31:59;;;;;;;;;47.67;36.00;;;;;;;;6402832;22;45258;-59
2023/02/09 14:34:37;;;;;;;;;26.00;23.00;;;;;;;;6403417;22;45347;-59
2023/02/09 14:37:12;;;;;;;;;47.33;35.67;;;;;;;;6403593;22;45930;-60
2023/02/09 14:39:55;;;;;;;;;39.33;33.33;;;;;;;;6374668;22;46035;-60
2023/02/09 14:42:22;;;;;;;;;43.75;36.75;;;;;;;;6400379;22;45719;-60
2023/02/09 14:44:50;;;;;;;;;42.33;34.00;;;;;;;;6401610;22;45340;-60
2023/02/09 14:47:34;;;;;;;;;45.00;34.67;;;;;;;;6402310;22;45450;-60
2023/02/09 14:49:59;;;;;;;;;43.67;36.33;;;;;;;;6403101;22;46591;-61
2023/02/09 14:52:30;;;;;;;;;48.00;40.50;;;;;;;;6402626;22;45233;-61
2023/02/09 14:54:57;;;;;;;;;52.00;40.75;;;;;;;;6404227;22;45324;-60
2023/02/09 14:57:24;;;;;;;;;54.00;42.50;;;;;;;;6403585;22;45356;-60
2023/02/09 14:59:49;;;;;;;;;45.50;37.00;;;;;;;;6401731;22;45200;-61
2023/02/09 15:02:17;;;;;;;;;48.50;38.00;;;;;;;;6398508;22;45340;-60
2023/02/09 15:04:43;;;;;;;;;52.50;39.75;;;;;;;;6398686;22;45400;-59
2023/02/09 15:07:11;;;;;;;;;51.75;42.00;;;;;;;;6400089;22;45590;-59
2023/02/09 15:09:36;;;;;;;;;50.25;40.75;;;;;;;;6398292;22;46115;-59
2023/02/09 15:12:06;;;;;;;;;60.25;47.00;;;;;;;;6401699;22;45321;-58
2023/02/09 15:14:40;;;;;;;;;59.75;48.00;;;;;;;;6400572;22;45289;-59
2023/02/09 15:17:13;;;;;;;;;59.00;42.75;;;;;;;;6401882;22;45628;-58
2023/02/09 15:19:38;;;;;;;;;57.75;43.75;;;;;;;;6402085;22;45310;-59
2023/02/09 15:22:04;;;;;;;;;52.25;43.00;;;;;;;;6400824;22;45357;-59
2023/02/09 15:24:29;;;;;;;;;56.00;43.75;;;;;;;;6371984;22;45273;-59
2023/02/09 15:26:54;;;;;;;;;53.75;39.50;;;;;;;;6402935;22;45327;-59
2023/02/09 15:29:19;;;;;;;;;59.25;44.50;;;;;;;;6402206;22;45793;-59
2023/02/09 15:31:45;;;;;;;;;51.00;42.00;;;;;;;;6402567;22;45545;-59
2023/02/09 15:34:10;;;;;;;;;45.25;36.25;;;;;;;;6402696;22;45373;-59
2023/02/09 15:36:36;;;;;;;;;56.25;44.00;;;;;;;;6402858;22;45447;-59
2023/02/09 15:39:02;;;;;;;;;54.00;42.00;;;;;;;;6402881;22;45158;-59
2023/02/09 15:49:42;;;;;;;;;56.25;44.25;;;;;;;;6399246;22;45383;-60
2023/02/09 15:52:07;;;;;;;;;61.75;46.75;;;;;;;;6400357;22;45369;-59
2023/02/09 15:54:32;;;;;;;;;58.25;46.00;;;;;;;;6402240;22;45321;-58
2023/02/09 15:56:59;;;;;;;;;60.75;46.25;;;;;;;;6402532;22;45329;-60
2023/02/09 15:59:24;;;;;;;;;54.75;43.25;;;;;;;;6402699;22;45306;-59
2023/02/09 16:01:49;;;;;;;;;59.75;46.75;;;;;;;;6402811;22;45283;-59
2023/02/09 16:04:15;;;;;;;;;59.50;46.75;;;;;;;;6403344;22;45581;-60
2023/02/09 16:06:45;;;;;;;;;59.00;45.50;;;;;;;;6403639;22;45399;-60
2023/02/09 16:09:16;;;;;;;;;65.00;48.50;;;;;;;;6373044;22;47225;-59
2023/02/09 16:11:41;;;;;;;;;76.00;56.75;;;;;;;;6403022;22;45315;-60
2023/02/09 16:14:14;;;;;;;;;60.75;49.75;;;;;;;;6388431;22;45340;-61
2023/02/09 16:16:39;;;;;;;;;70.25;49.25;;;;;;;;6399334;22;45300;-59
2023/02/09 16:19:06;;;;;;;;;62.00;49.50;;;;;;;;6400598;22;45357;-61
2023/02/09 16:21:32;;;;;;;;;60.00;49.00;;;;;;;;6373886;22;45643;-61
2023/02/09 16:23:59;;;;;;;;;61.25;48.25;;;;;;;;6401778;22;45403;-60
2023/02/09 16:26:25;;;;;;;;;61.75;46.75;;;;;;;;6402508;22;45342;-60
2023/02/09 16:28:51;;;;;;;;;57.50;45.50;;;;;;;;6402587;22;47055;-60
2023/02/09 16:31:17;;;;;;;;;59.50;47.25;;;;;;;;6402436;22;45225;-60
2023/02/09 16:33:43;;;;;;;;;58.50;46.75;;;;;;;;6403405;22;45734;-60
2023/02/09 16:36:13;;;;;;;;;66.00;48.75;;;;;;;;6402249;22;45628;-60
2023/02/09 16:38:38;;;;;;;;;61.00;48.00;;;;;;;;6402262;22;46195;-60
2023/02/09 16:41:04;;;;;;;;;61.00;46.25;;;;;;;;6402758;22;45696;-59
2023/02/09 16:43:30;;;;;;;;;65.25;49.75;;;;;;;;6402859;22;45309;-60
2023/02/09 16:45:55;;;;;;;;;61.00;46.75;;;;;;;;6375060;22;45084;-61
2023/02/09 16:48:25;;;;;;;;;61.25;50.25;;;;;;;;6374218;22;47987;-59
2023/02/09 16:50:52;;;;;;;;;65.75;50.00;;;;;;;;6402951;22;45620;-60
2023/02/09 16:53:20;;;;;;;;;61.00;49.25;;;;;;;;6401379;22;45907;-61
2023/02/09 16:55:45;;;;;;;;;64.50;49.00;;;;;;;;6402128;22;45414;-61
2023/02/09 16:58:14;;;;;;;;;66.75;47.50;;;;;;;;6397264;22;45862;-59
2023/02/09 17:00:42;;;;;;;;;59.00;48.25;;;;;;;;6372285;22;45364;-59
2023/02/09 17:03:15;;;;;;;;;57.75;46.50;;;;;;;;6400029;22;45685;-60
2023/02/09 17:05:42;;;;;;;;;60.50;48.25;;;;;;;;6400519;22;45668;-60
2023/02/09 17:08:17;;;;;;;;;66.75;49.25;;;;;;;;6401983;22;46150;-60
2023/02/09 17:10:42;;;;;;;;;62.00;49.50;;;;;;;;6401967;22;45647;-60
2023/02/09 17:13:08;;;;;;;;;56.25;46.75;;;;;;;;6402406;22;45651;-60
2023/02/09 17:15:40;;;;;;;;;59.75;46.75;;;;;;;;6402915;22;45549;-60
2023/02/09 17:18:06;;;;;;;;;67.00;52.75;;;;;;;;6401500;22;46385;-60
2023/02/09 17:20:36;;;;;;;;;62.50;48.75;;;;;;;;6402943;22;45461;-60
2023/02/09 17:23:01;;;;;;;;;66.25;50.25;;;;;;;;6402885;22;45215;-59
2023/02/09 17:25:26;;;;;;;;;63.00;49.25;;;;;;;;6370574;22;45746;-59
2023/02/09 17:27:51;;;;;;;;;63.75;52.75;;;;;;;;6399741;22;46336;-60
2023/02/09 17:30:17;;;;;;;;;63.25;48.75;;;;;;;;6400525;22;45401;-59
2023/02/09 17:32:43;;;;;;;;;68.00;51.25;;;;;;;;6401390;22;45257;-60
2023/02/09 17:35:11;;;;;;;;;71.00;50.25;;;;;;;;6401853;22;45416;-60
2023/02/09 17:37:37;;;;;;;;;61.00;47.25;;;;;;;;6401776;22;45329;-60
2023/02/09 17:40:02;;;;;;;;;62.75;50.00;;;;;;;;6401633;22;45449;-60
2023/02/09 17:42:27;;;;;;;;;63.00;50.50;;;;;;;;6400983;22;45442;-59
2023/02/09 17:44:52;;;;;;;;;61.25;48.25;;;;;;;;6373277;22;45403;-59
2023/02/09 17:47:18;;;;;;;;;62.75;51.25;;;;;;;;6401353;22;45258;-60
2023/02/09 17:49:44;;;;;;;;;71.00;54.25;;;;;;;;6402565;22;45747;-59
2023/02/09 17:52:14;;;;;;;;;66.00;51.00;;;;;;;;6397129;22;45624;-59
2023/02/09 17:54:39;;;;;;;;;71.50;56.25;;;;;;;;6397467;22;45711;-59
2023/02/09 17:57:05;;;;;;;;;65.00;51.75;;;;;;;;6371454;22;46272;-61
2023/02/09 17:59:30;;;;;;;;;69.25;54.00;;;;;;;;6402488;22;45382;-58
2023/02/09 18:01:57;;;;;;;;;71.25;53.00;;;;;;;;6403025;22;45303;-59
2023/02/09 18:04:25;;;;;;;;;68.75;53.00;;;;;;;;6400676;22;45240;-59
2023/02/09 18:06:51;;;;;;;;;70.00;54.00;;;;;;;;6401017;22;45673;-61
2023/02/09 18:09:16;;;;;;;;;69.50;53.75;;;;;;;;6396731;22;45297;-60
2023/02/09 18:11:41;;;;;;;;;68.00;53.25;;;;;;;;6399665;22;45255;-59
2023/02/09 18:14:07;;;;;;;;;71.25;54.75;;;;;;;;6401000;22;45448;-59
2023/02/09 18:16:35;;;;;;;;;71.75;55.25;;;;;;;;6398613;22;46053;-59
2023/02/09 18:19:00;;;;;;;;;68.25;54.00;;;;;;;;6399150;22;45387;-59
2023/02/09 18:21:25;;;;;;;;;72.00;54.50;;;;;;;;6397338;22;45328;-59
2023/02/09 18:23:50;;;;;;;;;68.50;52.00;;;;;;;;6371878;22;45258;-60
2023/02/09 18:26:15;;;;;;;;;72.25;56.25;;;;;;;;6398497;22;46476;-60
2023/02/09 18:28:41;;;;;;;;;72.75;56.50;;;;;;;;6401526;22;45354;-59
2023/02/09 18:31:10;;;;;;;;;78.00;59.50;;;;;;;;6401306;22;45557;-60
2023/02/09 18:33:37;;;;;;;;;75.75;57.25;;;;;;;;6398976;22;45633;-60
2023/02/09 18:36:02;;;;;;;;;82.75;61.50;;;;;;;;6399258;22;45251;-58
2023/02/09 18:38:28;;;;;;;;;82.50;67.75;;;;;;;;6397813;22;45349;-59
2023/02/09 18:40:54;;;;;;;;;77.50;61.00;;;;;;;;6401110;22;45323;-58
2023/02/09 18:43:19;;;;;;;;;77.25;60.00;;;;;;;;6399333;22;45368;-59
2023/02/09 18:45:44;;;;;;;;;79.00;62.00;;;;;;;;6401482;22;45992;-59
2023/02/09 18:48:09;;;;;;;;;79.75;63.00;;;;;;;;6400646;22;45921;-61
2023/02/09 18:50:35;;;;;;;;;80.50;64.25;;;;;;;;6402337;22;45410;-60
2023/02/09 18:53:01;;;;;;;;;80.25;63.25;;;;;;;;6400652;22;45861;-60
2023/02/09 18:55:30;;;;;;;;;80.75;64.75;;;;;;;;6403611;22;45245;-60
2023/02/09 18:57:59;;;;;;;;;82.25;65.50;;;;;;;;6402298;22;45733;-60
2023/02/09 19:00:25;;;;;;;;;83.75;64.75;;;;;;;;6402295;22;45373;-60
2023/02/09 19:02:52;;;;;;;;;80.75;60.25;;;;;;;;6402818;22;45589;-60
2023/02/09 19:05:18;;;;;;;;;78.00;65.00;;;;;;;;6400412;22;45384;-60
2023/02/09 19:07:43;;;;;;;;;74.50;59.00;;;;;;;;6402591;22;45316;-60
2023/02/09 19:10:10;;;;;;;;;77.50;61.50;;;;;;;;6401279;22;45275;-59
2023/02/09 19:12:36;;;;;;;;;70.00;58.00;;;;;;;;6403323;22;45322;-59
2023/02/09 19:15:01;;;;;;;;;81.50;63.50;;;;;;;;6403177;22;45219;-60
2023/02/09 19:17:26;;;;;;;;;75.75;57.50;;;;;;;;6402363;22;45424;-60
2023/02/09 19:19:52;;;;;;;;;78.75;57.75;;;;;;;;6402575;22;45314;-59
2023/02/09 19:22:19;;;;;;;;;76.50;57.50;;;;;;;;6402027;22;45319;-59
2023/02/09 19:24:45;;;;;;;;;74.25;56.50;;;;;;;;6401586;22;46008;-59
2023/02/09 19:27:11;;;;;;;;;83.25;60.75;;;;;;;;6399754;22;45713;-59
2023/02/09 19:29:37;;;;;;;;;80.75;63.50;;;;;;;;6402010;22;45387;-60
2023/02/09 19:32:04;;;;;;;;;78.50;63.75;;;;;;;;6401990;22;45542;-59
2023/02/09 19:34:30;;;;;;;;;77.25;59.75;;;;;;;;6402276;22;46221;-60
2023/02/09 19:36:55;;;;;;;;;79.25;63.50;;;;;;;;6402546;22;45336;-60
2023/02/09 19:39:21;;;;;;;;;80.75;66.25;;;;;;;;6402240;22;45313;-59
2023/02/09 19:41:47;;;;;;;;;79.75;64.00;;;;;;;;6402352;22;45353;-60
2023/02/09 19:44:13;;;;;;;;;82.25;68.75;;;;;;;;6399740;22;47051;-60
2023/02/09 19:46:40;;;;;;;;;85.25;69.75;;;;;;;;6400969;22;45448;-59
2023/02/09 19:49:05;;;;;;;;;83.00;66.75;;;;;;;;6400909;22;45348;-59
2023/02/09 19:51:31;;;;;;;;;84.75;69.75;;;;;;;;6399541;22;45410;-58
2023/02/09 19:53:56;;;;;;;;;88.50;75.75;;;;;;;;6398253;22;46739;-59
2023/02/09 19:56:22;;;;;;;;;87.00;76.00;;;;;;;;6397808;22;45359;-59
2023/02/09 19:58:47;;;;;;;;;79.75;67.50;;;;;;;;6397521;22;45348;-59